sensor_id;sensor_type;location;lat;lon;timestamp;temperature;humidity
23100;DHT22;53791;50.696;4.396;2022-12-10T00:01:25;0.30;99.90
23100;DHT22;53791;50.696;4.396;2022-12-10T00:03:53;0.30;99.90
23100;DHT22;53791;50.696;4.396;2022-12-10T00:06:24;0.30;99.90
23100;DHT22;53791;50.696;4.396;2022-12-10T00:08:52;0.40;99.90
23100;DHT22;53791;50.696;4.396;2022-12-10T00:11:20;0.40;99.90
23100;DHT22;53791;50.696;4.396;2022-12-10T00:13:49;0.20;99.90
23100;DHT22;53791;50.696;4.396;2022-12-10T00:16:18;0.10;99.90
23100;DHT22;53791;50.696;4.396;2022-12-10T00:18:46;0.00;99.90
23100;DHT22;53791;50.696;4.396;2022-12-10T00:21:17;-0.10;99.90
23100;DHT22;53791;50.696;4.396;2022-12-10T00:23:45;-0.10;99.90
23100;DHT22;53791;50.696;4.396;2022-12-10T00:26:16;-0.30;99.90
23100;DHT22;53791;50.696;4.396;2022-12-10T00:28:45;0.00;99.90
23100;DHT22;53791;50.696;4.396;2022-12-10T00:31:15;-0.10;99.90
23100;DHT22;53791;50.696;4.396;2022-12-10T00:33:44;-0.10;99.90
23100;DHT22;53791;50.696;4.396;2022-12-10T00:36:18;0.00;99.90
23100;DHT22;53791;50.696;4.396;2022-12-10T00:38:49;-0.10;99.90
23100;DHT22;53791;50.696;4.396;2022-12-10T00:41:17;-0.10;99.90
23100;DHT22;53791;50.696;4.396;2022-12-10T00:43:46;0.00;99.90
23100;DHT22;53791;50.696;4.396;2022-12-10T00:46:14;0.00;99.90
23100;DHT22;53791;50.696;4.396;2022-12-10T00:48:43;0.10;99.90
23100;DHT22;53791;50.696;4.396;2022-12-10T00:51:16;0.10;99.90
23100;DHT22;53791;50.696;4.396;2022-12-10T00:53:43;0.10;99.90
23100;DHT22;53791;50.696;4.396;2022-12-10T00:56:12;0.10;99.90
23100;DHT22;53791;50.696;4.396;2022-12-10T00:58:40;0.30;99.90
23100;DHT22;53791;50.696;4.396;2022-12-10T01:01:28;0.20;99.90
23100;DHT22;53791;50.696;4.396;2022-12-10T01:04:00;0.10;99.90
23100;DHT22;53791;50.696;4.396;2022-12-10T01:06:31;0.10;99.90
23100;DHT22;53791;50.696;4.396;2022-12-10T01:09:06;0.20;99.90
23100;DHT22;53791;50.696;4.396;2022-12-10T01:11:36;0.00;99.90
23100;DHT22;53791;50.696;4.396;2022-12-10T01:14:06;0.00;99.90
23100;DHT22;53791;50.696;4.396;2022-12-10T01:16:34;0.00;99.90
23100;DHT22;53791;50.696;4.396;2022-12-10T01:19:02;0.10;99.90
23100;DHT22;53791;50.696;4.396;2022-12-10T01:21:29;0.10;99.90
23100;DHT22;53791;50.696;4.396;2022-12-10T01:24:15;0.10;99.90
23100;DHT22;53791;50.696;4.396;2022-12-10T01:26:42;0.10;99.90
23100;DHT22;53791;50.696;4.396;2022-12-10T01:29:10;0.10;99.90
23100;DHT22;53791;50.696;4.396;2022-12-10T01:31:39;0.10;99.90
23100;DHT22;53791;50.696;4.396;2022-12-10T01:34:09;0.10;99.90
23100;DHT22;53791;50.696;4.396;2022-12-10T01:36:39;0.20;99.90
23100;DHT22;53791;50.696;4.396;2022-12-10T01:39:11;0.20;99.90
23100;DHT22;53791;50.696;4.396;2022-12-10T01:41:45;0.20;99.90
23100;DHT22;53791;50.696;4.396;2022-12-10T01:46:44;0.20;99.90
23100;DHT22;53791;50.696;4.396;2022-12-10T01:49:17;0.20;99.90
23100;DHT22;53791;50.696;4.396;2022-12-10T01:51:49;0.10;99.90
23100;DHT22;53791;50.696;4.396;2022-12-10T01:54:25;0.10;99.90
23100;DHT22;53791;50.696;4.396;2022-12-10T01:57:00;0.00;99.90
23100;DHT22;53791;50.696;4.396;2022-12-10T01:59:36;0.00;99.90
23100;DHT22;53791;50.696;4.396;2022-12-10T02:02:17;-0.10;99.90
23100;DHT22;53791;50.696;4.396;2022-12-10T02:04:54;-0.30;99.90
23100;DHT22;53791;50.696;4.396;2022-12-10T02:07:36;-0.30;99.90
23100;DHT22;53791;50.696;4.396;2022-12-10T02:12:58;0.00;99.90
23100;DHT22;53791;50.696;4.396;2022-12-10T02:15:29;-0.10;99.90
23100;DHT22;53791;50.696;4.396;2022-12-10T02:18:05;-0.30;99.90
23100;DHT22;53791;50.696;4.396;2022-12-10T02:20:41;-0.40;99.90
23100;DHT22;53791;50.696;4.396;2022-12-10T02:23:31;-0.50;99.90
23100;DHT22;53791;50.696;4.396;2022-12-10T02:26:11;-0.60;99.90
23100;DHT22;53791;50.696;4.396;2022-12-10T02:31:24;-0.30;99.90
23100;DHT22;53791;50.696;4.396;2022-12-10T02:33:55;-0.50;99.90
23100;DHT22;53791;50.696;4.396;2022-12-10T02:36:24;-0.50;99.90
23100;DHT22;53791;50.696;4.396;2022-12-10T02:38:53;-0.40;99.90
23100;DHT22;53791;50.696;4.396;2022-12-10T02:41:28;-0.40;99.90
23100;DHT22;53791;50.696;4.396;2022-12-10T02:43:57;-0.40;99.90
23100;DHT22;53791;50.696;4.396;2022-12-10T02:46:26;-0.40;99.90
23100;DHT22;53791;50.696;4.396;2022-12-10T02:48:56;-0.30;99.90
23100;DHT22;53791;50.696;4.396;2022-12-10T02:51:25;-0.20;99.90
23100;DHT22;53791;50.696;4.396;2022-12-10T02:54:31;-0.20;99.90
23100;DHT22;53791;50.696;4.396;2022-12-10T02:56:44;-0.10;99.90
23100;DHT22;53791;50.696;4.396;2022-12-10T02:59:16;-0.20;99.90
23100;DHT22;53791;50.696;4.396;2022-12-10T03:01:50;-0.20;99.90
23100;DHT22;53791;50.696;4.396;2022-12-10T03:04:20;-0.20;99.90
23100;DHT22;53791;50.696;4.396;2022-12-10T03:06:53;-0.20;99.90
23100;DHT22;53791;50.696;4.396;2022-12-10T03:09:30;-0.20;99.90
23100;DHT22;53791;50.696;4.396;2022-12-10T03:12:06;-0.50;99.90
23100;DHT22;53791;50.696;4.396;2022-12-10T03:14:33;-0.60;99.90
23100;DHT22;53791;50.696;4.396;2022-12-10T03:17:02;-0.50;99.90
23100;DHT22;53791;50.696;4.396;2022-12-10T03:19:44;-0.50;99.90
23100;DHT22;53791;50.696;4.396;2022-12-10T03:22:07;-0.40;99.90
23100;DHT22;53791;50.696;4.396;2022-12-10T03:24:37;-0.20;99.90
23100;DHT22;53791;50.696;4.396;2022-12-10T03:27:05;-0.30;99.90
23100;DHT22;53791;50.696;4.396;2022-12-10T03:29:44;-0.20;99.90
23100;DHT22;53791;50.696;4.396;2022-12-10T03:32:07;-0.20;99.90
23100;DHT22;53791;50.696;4.396;2022-12-10T03:34:35;-0.10;99.90
23100;DHT22;53791;50.696;4.396;2022-12-10T03:37:03;-0.10;99.90
23100;DHT22;53791;50.696;4.396;2022-12-10T03:39:32;-0.20;99.90
23100;DHT22;53791;50.696;4.396;2022-12-10T03:42:00;-0.30;99.90
23100;DHT22;53791;50.696;4.396;2022-12-10T03:44:30;-0.20;99.90
23100;DHT22;53791;50.696;4.396;2022-12-10T03:46:58;-0.30;99.90
23100;DHT22;53791;50.696;4.396;2022-12-10T03:49:25;-0.30;99.90
23100;DHT22;53791;50.696;4.396;2022-12-10T03:51:53;-0.20;99.90
23100;DHT22;53791;50.696;4.396;2022-12-10T03:54:21;-0.30;99.90
23100;DHT22;53791;50.696;4.396;2022-12-10T03:56:49;-0.30;99.90
23100;DHT22;53791;50.696;4.396;2022-12-10T03:59:16;-0.10;99.90
23100;DHT22;53791;50.696;4.396;2022-12-10T04:01:44;-0.20;99.90
23100;DHT22;53791;50.696;4.396;2022-12-10T04:04:12;-0.20;99.90
23100;DHT22;53791;50.696;4.396;2022-12-10T04:06:40;-0.20;99.90
23100;DHT22;53791;50.696;4.396;2022-12-10T04:09:10;-0.20;99.90
23100;DHT22;53791;50.696;4.396;2022-12-10T04:11:38;-0.10;99.90
23100;DHT22;53791;50.696;4.396;2022-12-10T04:14:07;-0.10;99.90
23100;DHT22;53791;50.696;4.396;2022-12-10T04:16:52;-0.10;99.90
23100;DHT22;53791;50.696;4.396;2022-12-10T04:19:20;-0.10;99.90
23100;DHT22;53791;50.696;4.396;2022-12-10T04:21:48;-0.20;99.90
23100;DHT22;53791;50.696;4.396;2022-12-10T04:24:36;-0.20;99.90
23100;DHT22;53791;50.696;4.396;2022-12-10T04:27:27;-0.10;99.90
23100;DHT22;53791;50.696;4.396;2022-12-10T04:29:55;-0.10;99.90
23100;DHT22;53791;50.696;4.396;2022-12-10T04:32:25;-0.10;99.90
23100;DHT22;53791;50.696;4.396;2022-12-10T04:34:53;-0.10;99.90
23100;DHT22;53791;50.696;4.396;2022-12-10T04:37:21;-0.10;99.90
23100;DHT22;53791;50.696;4.396;2022-12-10T04:39:52;-0.20;99.90
23100;DHT22;53791;50.696;4.396;2022-12-10T04:42:21;-0.10;99.90
23100;DHT22;53791;50.696;4.396;2022-12-10T04:44:49;-0.10;99.90
23100;DHT22;53791;50.696;4.396;2022-12-10T04:47:17;-0.10;99.90
23100;DHT22;53791;50.696;4.396;2022-12-10T04:49:44;-0.10;99.90
23100;DHT22;53791;50.696;4.396;2022-12-10T04:52:13;-0.30;99.90
23100;DHT22;53791;50.696;4.396;2022-12-10T04:54:42;-0.30;99.90
23100;DHT22;53791;50.696;4.396;2022-12-10T04:57:10;-0.20;99.90
23100;DHT22;53791;50.696;4.396;2022-12-10T04:59:38;-0.20;99.90
23100;DHT22;53791;50.696;4.396;2022-12-10T05:02:06;-0.20;99.90
23100;DHT22;53791;50.696;4.396;2022-12-10T05:04:33;-0.20;99.90
23100;DHT22;53791;50.696;4.396;2022-12-10T05:07:01;-0.30;99.90
23100;DHT22;53791;50.696;4.396;2022-12-10T05:09:29;-0.40;99.90
23100;DHT22;53791;50.696;4.396;2022-12-10T05:11:56;-0.50;99.90
23100;DHT22;53791;50.696;4.396;2022-12-10T05:14:24;-0.40;99.90
23100;DHT22;53791;50.696;4.396;2022-12-10T05:16:52;-0.30;99.90
23100;DHT22;53791;50.696;4.396;2022-12-10T05:19:20;-0.30;99.90
23100;DHT22;53791;50.696;4.396;2022-12-10T05:21:48;-0.30;99.90
23100;DHT22;53791;50.696;4.396;2022-12-10T05:24:34;-0.20;99.90
23100;DHT22;53791;50.696;4.396;2022-12-10T05:27:01;-0.20;99.90
23100;DHT22;53791;50.696;4.396;2022-12-10T05:29:29;-0.10;99.90
23100;DHT22;53791;50.696;4.396;2022-12-10T05:31:57;-0.10;99.90
23100;DHT22;53791;50.696;4.396;2022-12-10T05:34:24;-0.20;99.90
23100;DHT22;53791;50.696;4.396;2022-12-10T05:36:52;-0.20;99.90
23100;DHT22;53791;50.696;4.396;2022-12-10T05:39:20;-0.20;99.90
23100;DHT22;53791;50.696;4.396;2022-12-10T05:41:47;-0.20;99.90
23100;DHT22;53791;50.696;4.396;2022-12-10T05:44:15;-0.20;99.90
23100;DHT22;53791;50.696;4.396;2022-12-10T05:46:42;-0.20;99.90
23100;DHT22;53791;50.696;4.396;2022-12-10T05:49:10;-0.20;99.90
23100;DHT22;53791;50.696;4.396;2022-12-10T05:51:38;-0.30;99.90
23100;DHT22;53791;50.696;4.396;2022-12-10T05:54:06;-0.30;99.90
23100;DHT22;53791;50.696;4.396;2022-12-10T05:56:36;-0.30;99.90
23100;DHT22;53791;50.696;4.396;2022-12-10T05:59:04;-0.40;99.90
23100;DHT22;53791;50.696;4.396;2022-12-10T06:01:34;-0.30;99.90
23100;DHT22;53791;50.696;4.396;2022-12-10T06:04:04;-0.40;99.90
23100;DHT22;53791;50.696;4.396;2022-12-10T06:06:34;-0.40;99.90
23100;DHT22;53791;50.696;4.396;2022-12-10T06:09:02;-0.40;99.90
23100;DHT22;53791;50.696;4.396;2022-12-10T06:11:29;-0.40;99.90
23100;DHT22;53791;50.696;4.396;2022-12-10T06:13:57;-0.40;99.90
23100;DHT22;53791;50.696;4.396;2022-12-10T06:16:26;-0.40;99.90
23100;DHT22;53791;50.696;4.396;2022-12-10T06:18:54;-0.40;99.90
23100;DHT22;53791;50.696;4.396;2022-12-10T06:21:23;-0.40;99.90
23100;DHT22;53791;50.696;4.396;2022-12-10T06:23:51;-0.50;99.90
23100;DHT22;53791;50.696;4.396;2022-12-10T06:26:22;-0.20;99.90
23100;DHT22;53791;50.696;4.396;2022-12-10T06:28:50;-0.30;99.90
23100;DHT22;53791;50.696;4.396;2022-12-10T06:31:18;-0.30;99.90
23100;DHT22;53791;50.696;4.396;2022-12-10T06:33:46;-0.30;99.90
23100;DHT22;53791;50.696;4.396;2022-12-10T06:36:16;-0.40;99.90
23100;DHT22;53791;50.696;4.396;2022-12-10T06:38:44;-0.50;99.90
23100;DHT22;53791;50.696;4.396;2022-12-10T06:41:15;-0.40;99.90
23100;DHT22;53791;50.696;4.396;2022-12-10T06:43:43;-0.50;99.90
23100;DHT22;53791;50.696;4.396;2022-12-10T06:46:12;-0.40;99.90
23100;DHT22;53791;50.696;4.396;2022-12-10T06:48:41;-0.50;99.90
23100;DHT22;53791;50.696;4.396;2022-12-10T06:51:09;-0.40;99.90
23100;DHT22;53791;50.696;4.396;2022-12-10T06:53:38;-0.40;99.90
23100;DHT22;53791;50.696;4.396;2022-12-10T06:56:06;-0.50;99.90
23100;DHT22;53791;50.696;4.396;2022-12-10T06:58:35;-0.40;99.90
23100;DHT22;53791;50.696;4.396;2022-12-10T07:01:10;-0.30;99.90
23100;DHT22;53791;50.696;4.396;2022-12-10T07:03:38;-0.40;99.90
23100;DHT22;53791;50.696;4.396;2022-12-10T07:06:11;-0.40;99.90
23100;DHT22;53791;50.696;4.396;2022-12-10T07:08:40;-0.40;99.90
23100;DHT22;53791;50.696;4.396;2022-12-10T07:11:10;-0.40;99.90
23100;DHT22;53791;50.696;4.396;2022-12-10T07:13:38;-0.30;99.90
23100;DHT22;53791;50.696;4.396;2022-12-10T07:16:14;-0.40;99.90
23100;DHT22;53791;50.696;4.396;2022-12-10T07:18:43;-0.30;99.90
23100;DHT22;53791;50.696;4.396;2022-12-10T07:21:14;-0.40;99.90
23100;DHT22;53791;50.696;4.396;2022-12-10T07:23:42;-0.50;99.90
23100;DHT22;53791;50.696;4.396;2022-12-10T07:26:10;-0.50;99.90
23100;DHT22;53791;50.696;4.396;2022-12-10T07:28:44;-0.50;99.90
23100;DHT22;53791;50.696;4.396;2022-12-10T07:31:10;-0.50;99.90
23100;DHT22;53791;50.696;4.396;2022-12-10T07:33:38;-0.50;99.90
23100;DHT22;53791;50.696;4.396;2022-12-10T07:36:12;-0.50;99.90
23100;DHT22;53791;50.696;4.396;2022-12-10T07:38:47;-0.50;99.90
23100;DHT22;53791;50.696;4.396;2022-12-10T07:41:17;-0.40;99.90
23100;DHT22;53791;50.696;4.396;2022-12-10T07:43:45;-0.40;99.90
23100;DHT22;53791;50.696;4.396;2022-12-10T07:46:24;-0.40;99.90
23100;DHT22;53791;50.696;4.396;2022-12-10T07:48:52;-0.30;99.90
23100;DHT22;53791;50.696;4.396;2022-12-10T07:51:21;-0.30;99.90
23100;DHT22;53791;50.696;4.396;2022-12-10T07:53:51;-0.30;99.90
23100;DHT22;53791;50.696;4.396;2022-12-10T07:56:30;-0.30;99.90
23100;DHT22;53791;50.696;4.396;2022-12-10T07:58:57;-0.30;99.90
23100;DHT22;53791;50.696;4.396;2022-12-10T08:01:26;-0.30;99.90
23100;DHT22;53791;50.696;4.396;2022-12-10T08:03:55;-0.30;99.90
23100;DHT22;53791;50.696;4.396;2022-12-10T08:06:27;-0.30;99.90
23100;DHT22;53791;50.696;4.396;2022-12-10T08:08:57;-0.30;99.90
23100;DHT22;53791;50.696;4.396;2022-12-10T08:11:43;-0.20;99.90
23100;DHT22;53791;50.696;4.396;2022-12-10T08:14:09;-0.20;99.90
23100;DHT22;53791;50.696;4.396;2022-12-10T08:16:36;-0.30;99.90
23100;DHT22;53791;50.696;4.396;2022-12-10T08:19:04;-0.20;99.90
23100;DHT22;53791;50.696;4.396;2022-12-10T08:21:32;-0.30;99.90
23100;DHT22;53791;50.696;4.396;2022-12-10T08:24:00;-0.30;99.90
23100;DHT22;53791;50.696;4.396;2022-12-10T08:26:32;-0.30;99.90
23100;DHT22;53791;50.696;4.396;2022-12-10T08:29:01;-0.40;99.90
23100;DHT22;53791;50.696;4.396;2022-12-10T08:31:29;-0.50;99.90
23100;DHT22;53791;50.696;4.396;2022-12-10T08:33:57;-0.30;99.90
23100;DHT22;53791;50.696;4.396;2022-12-10T08:36:24;-0.40;99.90
23100;DHT22;53791;50.696;4.396;2022-12-10T08:38:52;-0.40;99.90
23100;DHT22;53791;50.696;4.396;2022-12-10T08:41:21;-0.40;99.90
23100;DHT22;53791;50.696;4.396;2022-12-10T08:43:50;-0.40;99.90
23100;DHT22;53791;50.696;4.396;2022-12-10T08:46:18;-0.30;99.90
23100;DHT22;53791;50.696;4.396;2022-12-10T08:48:46;-0.30;99.90
23100;DHT22;53791;50.696;4.396;2022-12-10T08:51:18;-0.30;99.90
23100;DHT22;53791;50.696;4.396;2022-12-10T08:53:47;-0.30;99.90
23100;DHT22;53791;50.696;4.396;2022-12-10T08:56:14;-0.30;99.90
23100;DHT22;53791;50.696;4.396;2022-12-10T08:58:51;-0.30;99.90
23100;DHT22;53791;50.696;4.396;2022-12-10T09:01:19;-0.30;99.90
23100;DHT22;53791;50.696;4.396;2022-12-10T09:03:47;-0.20;99.90
23100;DHT22;53791;50.696;4.396;2022-12-10T09:06:18;-0.40;99.90
23100;DHT22;53791;50.696;4.396;2022-12-10T09:08:46;-0.40;99.90
23100;DHT22;53791;50.696;4.396;2022-12-10T09:11:19;-0.50;99.90
23100;DHT22;53791;50.696;4.396;2022-12-10T09:13:48;-0.40;99.90
23100;DHT22;53791;50.696;4.396;2022-12-10T09:16:15;-0.60;99.90
23100;DHT22;53791;50.696;4.396;2022-12-10T09:18:43;-0.40;99.90
23100;DHT22;53791;50.696;4.396;2022-12-10T09:21:16;-0.30;99.90
23100;DHT22;53791;50.696;4.396;2022-12-10T09:23:45;-0.20;99.90
23100;DHT22;53791;50.696;4.396;2022-12-10T09:26:14;-0.30;99.90
23100;DHT22;53791;50.696;4.396;2022-12-10T09:28:43;-0.30;99.90
23100;DHT22;53791;50.696;4.396;2022-12-10T09:31:13;-0.10;99.90
23100;DHT22;53791;50.696;4.396;2022-12-10T09:33:42;0.00;99.90
23100;DHT22;53791;50.696;4.396;2022-12-10T09:36:11;0.10;99.90
23100;DHT22;53791;50.696;4.396;2022-12-10T09:38:55;0.00;99.90
23100;DHT22;53791;50.696;4.396;2022-12-10T09:42:03;0.00;99.90
23100;DHT22;53791;50.696;4.396;2022-12-10T09:44:49;0.00;99.90
23100;DHT22;53791;50.696;4.396;2022-12-10T09:47:17;0.00;99.90
23100;DHT22;53791;50.696;4.396;2022-12-10T09:52:42;0.10;99.90
23100;DHT22;53791;50.696;4.396;2022-12-10T09:55:18;0.00;99.90
23100;DHT22;53791;50.696;4.396;2022-12-10T09:57:48;-0.10;99.90
23100;DHT22;53791;50.696;4.396;2022-12-10T10:00:39;0.00;99.90
23100;DHT22;53791;50.696;4.396;2022-12-10T10:03:11;-0.10;99.90
23100;DHT22;53791;50.696;4.396;2022-12-10T10:05:40;-0.10;99.90
23100;DHT22;53791;50.696;4.396;2022-12-10T10:08:13;-0.10;99.90
23100;DHT22;53791;50.696;4.396;2022-12-10T10:11:00;-0.10;99.90
23100;DHT22;53791;50.696;4.396;2022-12-10T10:13:37;0.10;99.90
23100;DHT22;53791;50.696;4.396;2022-12-10T10:16:21;0.20;99.90
23100;DHT22;53791;50.696;4.396;2022-12-10T10:18:56;0.20;99.90
23100;DHT22;53791;50.696;4.396;2022-12-10T10:21:27;0.30;99.90
23100;DHT22;53791;50.696;4.396;2022-12-10T10:23:56;0.20;99.90
23100;DHT22;53791;50.696;4.396;2022-12-10T10:26:27;0.10;99.90
23100;DHT22;53791;50.696;4.396;2022-12-10T10:28:57;0.20;99.90
23100;DHT22;53791;50.696;4.396;2022-12-10T10:31:28;0.00;99.90
23100;DHT22;53791;50.696;4.396;2022-12-10T10:34:02;0.10;99.90
23100;DHT22;53791;50.696;4.396;2022-12-10T10:36:38;0.10;99.90
23100;DHT22;53791;50.696;4.396;2022-12-10T10:41:48;0.00;99.90
23100;DHT22;53791;50.696;4.396;2022-12-10T10:44:19;0.00;99.90
23100;DHT22;53791;50.696;4.396;2022-12-10T10:46:48;0.00;99.90
23100;DHT22;53791;50.696;4.396;2022-12-10T10:49:27;0.10;99.90
23100;DHT22;53791;50.696;4.396;2022-12-10T10:52:00;0.10;99.90
23100;DHT22;53791;50.696;4.396;2022-12-10T10:54:37;0.20;99.90
23100;DHT22;53791;50.696;4.396;2022-12-10T10:57:23;0.30;99.90
23100;DHT22;53791;50.696;4.396;2022-12-10T11:00:00;0.40;99.90
23100;DHT22;53791;50.696;4.396;2022-12-10T11:02:36;0.40;99.90
23100;DHT22;53791;50.696;4.396;2022-12-10T11:07:39;0.30;99.90
23100;DHT22;53791;50.696;4.396;2022-12-10T11:10:21;0.30;99.90
23100;DHT22;53791;50.696;4.396;2022-12-10T11:13:03;0.40;99.90
23100;DHT22;53791;50.696;4.396;2022-12-10T11:15:35;0.40;99.90
23100;DHT22;53791;50.696;4.396;2022-12-10T11:18:19;0.40;99.90
23100;DHT22;53791;50.696;4.396;2022-12-10T11:20:34;0.40;99.90
23100;DHT22;53791;50.696;4.396;2022-12-10T11:23:08;0.50;99.90
23100;DHT22;53791;50.696;4.396;2022-12-10T11:25:50;0.50;99.90
23100;DHT22;53791;50.696;4.396;2022-12-10T11:28:33;0.60;99.90
23100;DHT22;53791;50.696;4.396;2022-12-10T11:33:57;0.70;99.90
23100;DHT22;53791;50.696;4.396;2022-12-10T11:36:33;0.70;99.90
23100;DHT22;53791;50.696;4.396;2022-12-10T11:39:31;0.70;99.90
23100;DHT22;53791;50.696;4.396;2022-12-10T11:42:24;0.70;99.90
23100;DHT22;53791;50.696;4.396;2022-12-10T11:45:00;0.60;99.90
23100;DHT22;53791;50.696;4.396;2022-12-10T11:50:36;0.80;99.90
23100;DHT22;53791;50.696;4.396;2022-12-10T11:53:13;0.80;99.90
23100;DHT22;53791;50.696;4.396;2022-12-10T12:04:23;0.70;99.90
23100;DHT22;53791;50.696;4.396;2022-12-10T12:06:58;0.70;99.90
23100;DHT22;53791;50.696;4.396;2022-12-10T12:12:06;0.60;99.90
23100;DHT22;53791;50.696;4.396;2022-12-10T12:14:51;0.60;99.90
23100;DHT22;53791;50.696;4.396;2022-12-10T12:17:30;0.70;99.90
23100;DHT22;53791;50.696;4.396;2022-12-10T12:20:08;0.80;99.90
23100;DHT22;53791;50.696;4.396;2022-12-10T12:22:36;0.80;99.90
23100;DHT22;53791;50.696;4.396;2022-12-10T12:25:06;0.90;99.90
23100;DHT22;53791;50.696;4.396;2022-12-10T12:27:41;0.90;99.90
23100;DHT22;53791;50.696;4.396;2022-12-10T12:30:13;1.00;99.90
23100;DHT22;53791;50.696;4.396;2022-12-10T12:35:50;0.90;99.90
23100;DHT22;53791;50.696;4.396;2022-12-10T12:38:26;0.90;99.90
23100;DHT22;53791;50.696;4.396;2022-12-10T12:41:02;0.90;99.90
23100;DHT22;53791;50.696;4.396;2022-12-10T12:46:18;0.80;99.90
23100;DHT22;53791;50.696;4.396;2022-12-10T12:49:13;0.70;99.90
23100;DHT22;53791;50.696;4.396;2022-12-10T12:51:40;0.80;99.90
23100;DHT22;53791;50.696;4.396;2022-12-10T12:54:12;0.70;99.90
23100;DHT22;53791;50.696;4.396;2022-12-10T12:59:40;0.60;99.90
23100;DHT22;53791;50.696;4.396;2022-12-10T13:05:00;0.60;99.90
23100;DHT22;53791;50.696;4.396;2022-12-10T13:07:29;0.70;99.90
23100;DHT22;53791;50.696;4.396;2022-12-10T13:10:18;0.80;99.90
23100;DHT22;53791;50.696;4.396;2022-12-10T13:12:48;0.90;99.90
23100;DHT22;53791;50.696;4.396;2022-12-10T13:15:38;0.90;99.90
23100;DHT22;53791;50.696;4.396;2022-12-10T13:18:33;0.90;99.90
23100;DHT22;53791;50.696;4.396;2022-12-10T13:21:15;0.80;99.90
23100;DHT22;53791;50.696;4.396;2022-12-10T13:23:31;1.00;99.90
23100;DHT22;53791;50.696;4.396;2022-12-10T13:26:01;1.00;99.90
23100;DHT22;53791;50.696;4.396;2022-12-10T13:28:38;1.10;99.90
23100;DHT22;53791;50.696;4.396;2022-12-10T13:31:13;1.10;99.90
23100;DHT22;53791;50.696;4.396;2022-12-10T13:34:04;1.10;99.90
23100;DHT22;53791;50.696;4.396;2022-12-10T13:39:34;1.10;99.90
23100;DHT22;53791;50.696;4.396;2022-12-10T13:48:30;1.00;99.90
23100;DHT22;53791;50.696;4.396;2022-12-10T13:51:26;1.00;99.90
23100;DHT22;53791;50.696;4.396;2022-12-10T13:54:21;1.10;99.90
23100;DHT22;53791;50.696;4.396;2022-12-10T13:59:57;1.10;99.90
23100;DHT22;53791;50.696;4.396;2022-12-10T14:07:59;1.10;99.90
23100;DHT22;53791;50.696;4.396;2022-12-10T14:10:33;1.10;99.90
23100;DHT22;53791;50.696;4.396;2022-12-10T14:13:03;1.20;99.90
23100;DHT22;53791;50.696;4.396;2022-12-10T14:15:31;1.20;99.90
23100;DHT22;53791;50.696;4.396;2022-12-10T14:18:12;1.10;99.90
23100;DHT22;53791;50.696;4.396;2022-12-10T14:20:47;1.20;99.90
23100;DHT22;53791;50.696;4.396;2022-12-10T14:23:25;1.10;99.90
23100;DHT22;53791;50.696;4.396;2022-12-10T14:29:48;1.10;99.90
23100;DHT22;53791;50.696;4.396;2022-12-10T14:32:14;1.10;99.90
23100;DHT22;53791;50.696;4.396;2022-12-10T14:34:46;1.20;99.90
23100;DHT22;53791;50.696;4.396;2022-12-10T14:37:13;1.10;99.90
23100;DHT22;53791;50.696;4.396;2022-12-10T14:39:41;1.00;99.90
23100;DHT22;53791;50.696;4.396;2022-12-10T14:42:12;1.00;99.90
23100;DHT22;53791;50.696;4.396;2022-12-10T14:44:41;1.00;99.90
23100;DHT22;53791;50.696;4.396;2022-12-10T14:47:17;1.00;99.90
23100;DHT22;53791;50.696;4.396;2022-12-10T14:49:47;1.10;99.90
23100;DHT22;53791;50.696;4.396;2022-12-10T14:52:19;1.10;99.90
23100;DHT22;53791;50.696;4.396;2022-12-10T14:54:46;1.10;99.90
23100;DHT22;53791;50.696;4.396;2022-12-10T14:57:25;1.20;99.90
23100;DHT22;53791;50.696;4.396;2022-12-10T15:00:00;1.20;99.90
23100;DHT22;53791;50.696;4.396;2022-12-10T15:02:32;1.20;99.90
23100;DHT22;53791;50.696;4.396;2022-12-10T15:05:00;1.30;99.90
23100;DHT22;53791;50.696;4.396;2022-12-10T15:07:33;1.40;99.90
23100;DHT22;53791;50.696;4.396;2022-12-10T15:10:05;1.40;99.90
23100;DHT22;53791;50.696;4.396;2022-12-10T15:12:43;1.30;99.90
23100;DHT22;53791;50.696;4.396;2022-12-10T15:15:22;1.30;99.90
23100;DHT22;53791;50.696;4.396;2022-12-10T15:18:00;1.30;99.90
23100;DHT22;53791;50.696;4.396;2022-12-10T15:20:27;1.30;99.90
23100;DHT22;53791;50.696;4.396;2022-12-10T15:22:54;1.40;99.90
23100;DHT22;53791;50.696;4.396;2022-12-10T15:25:27;1.40;99.90
23100;DHT22;53791;50.696;4.396;2022-12-10T15:31:30;1.40;99.90
23100;DHT22;53791;50.696;4.396;2022-12-10T15:34:02;1.30;99.90
23100;DHT22;53791;50.696;4.396;2022-12-10T15:36:39;1.30;99.90
23100;DHT22;53791;50.696;4.396;2022-12-10T15:39:30;1.30;99.90
23100;DHT22;53791;50.696;4.396;2022-12-10T15:42:00;1.40;99.90
23100;DHT22;53791;50.696;4.396;2022-12-10T15:44:41;1.30;99.90
23100;DHT22;53791;50.696;4.396;2022-12-10T15:47:17;1.30;99.90
23100;DHT22;53791;50.696;4.396;2022-12-10T15:49:46;1.30;99.90
23100;DHT22;53791;50.696;4.396;2022-12-10T15:52:16;1.30;99.90
23100;DHT22;53791;50.696;4.396;2022-12-10T15:54:50;1.40;99.90
23100;DHT22;53791;50.696;4.396;2022-12-10T15:57:26;1.50;99.90
23100;DHT22;53791;50.696;4.396;2022-12-10T15:59:55;1.60;99.90
23100;DHT22;53791;50.696;4.396;2022-12-10T16:02:47;1.50;99.90
23100;DHT22;53791;50.696;4.396;2022-12-10T16:07:42;1.40;99.90
23100;DHT22;53791;50.696;4.396;2022-12-10T16:10:15;1.30;99.90
23100;DHT22;53791;50.696;4.396;2022-12-10T16:12:44;1.30;99.90
23100;DHT22;53791;50.696;4.396;2022-12-10T16:15:21;1.30;99.90
23100;DHT22;53791;50.696;4.396;2022-12-10T16:17:48;1.20;99.90
23100;DHT22;53791;50.696;4.396;2022-12-10T16:20:25;1.20;99.90
23100;DHT22;53791;50.696;4.396;2022-12-10T16:22:54;1.20;99.90
23100;DHT22;53791;50.696;4.396;2022-12-10T16:25:23;1.20;99.90
23100;DHT22;53791;50.696;4.396;2022-12-10T16:27:51;1.20;99.90
23100;DHT22;53791;50.696;4.396;2022-12-10T16:30:22;1.30;99.90
23100;DHT22;53791;50.696;4.396;2022-12-10T16:32:50;1.40;99.90
23100;DHT22;53791;50.696;4.396;2022-12-10T16:35:19;1.30;99.90
23100;DHT22;53791;50.696;4.396;2022-12-10T16:37:47;1.30;99.90
23100;DHT22;53791;50.696;4.396;2022-12-10T16:40:17;1.30;99.90
23100;DHT22;53791;50.696;4.396;2022-12-10T16:42:45;1.20;99.90
23100;DHT22;53791;50.696;4.396;2022-12-10T16:45:18;1.20;99.90
23100;DHT22;53791;50.696;4.396;2022-12-10T16:47:46;1.20;99.90
23100;DHT22;53791;50.696;4.396;2022-12-10T16:50:20;1.30;99.90
23100;DHT22;53791;50.696;4.396;2022-12-10T16:52:45;1.40;99.90
23100;DHT22;53791;50.696;4.396;2022-12-10T16:55:18;1.50;99.90
23100;DHT22;53791;50.696;4.396;2022-12-10T16:57:49;1.40;99.90
23100;DHT22;53791;50.696;4.396;2022-12-10T17:00:19;1.40;99.90
23100;DHT22;53791;50.696;4.396;2022-12-10T17:02:48;1.50;99.90
23100;DHT22;53791;50.696;4.396;2022-12-10T17:05:31;1.50;99.90
23100;DHT22;53791;50.696;4.396;2022-12-10T17:07:55;1.50;99.90
23100;DHT22;53791;50.696;4.396;2022-12-10T17:10:23;1.50;99.90
23100;DHT22;53791;50.696;4.396;2022-12-10T17:13:10;1.40;99.90
23100;DHT22;53791;50.696;4.396;2022-12-10T17:15:39;1.50;99.90
23100;DHT22;53791;50.696;4.396;2022-12-10T17:18:16;1.50;99.90
23100;DHT22;53791;50.696;4.396;2022-12-10T17:20:46;1.50;99.90